sensor_id;sensor_type;location;lat;lon;timestamp;temperature;humidity
47338;DHT22;33069;51.970;5.892;2022-11-20T00:01:12;-3275.50;77.90
47338;DHT22;33069;51.970;5.892;2022-11-20T00:03:38;-3275.60;78.40
47338;DHT22;33069;51.970;5.892;2022-11-20T00:06:06;-3275.60;78.20
47338;DHT22;33069;51.970;5.892;2022-11-20T00:08:32;-3275.60;78.10
47338;DHT22;33069;51.970;5.892;2022-11-20T00:11:11;-3275.60;78.20
47338;DHT22;33069;51.970;5.892;2022-11-20T00:13:38;-3275.50;78.20
47338;DHT22;33069;51.970;5.892;2022-11-20T00:16:06;-3275.50;78.60
47338;DHT22;33069;51.970;5.892;2022-11-20T00:18:33;-3275.60;79.10
47338;DHT22;33069;51.970;5.892;2022-11-20T00:21:04;-3275.70;79.30
47338;DHT22;33069;51.970;5.892;2022-11-20T00:23:31;-3275.60;79.20
47338;DHT22;33069;51.970;5.892;2022-11-20T00:26:00;-3275.40;79.20
47338;DHT22;33069;51.970;5.892;2022-11-20T00:28:26;-3275.40;79.50
47338;DHT22;33069;51.970;5.892;2022-11-20T00:30:52;-3275.40;79.90
47338;DHT22;33069;51.970;5.892;2022-11-20T00:33:17;-3275.40;80.20
47338;DHT22;33069;51.970;5.892;2022-11-20T00:35:43;-3275.40;80.30
47338;DHT22;33069;51.970;5.892;2022-11-20T00:38:09;-3275.40;80.50
47338;DHT22;33069;51.970;5.892;2022-11-20T00:40:34;-3275.30;80.40
47338;DHT22;33069;51.970;5.892;2022-11-20T00:43:00;-3275.40;80.50
47338;DHT22;33069;51.970;5.892;2022-11-20T00:45:26;-3275.50;80.30
47338;DHT22;33069;51.970;5.892;2022-11-20T00:47:51;-3275.50;80.00
47338;DHT22;33069;51.970;5.892;2022-11-20T00:50:17;-3275.50;80.00
47338;DHT22;33069;51.970;5.892;2022-11-20T00:52:43;-3275.40;79.90
47338;DHT22;33069;51.970;5.892;2022-11-20T00:55:09;-3275.40;80.10
47338;DHT22;33069;51.970;5.892;2022-11-20T00:57:34;-3275.30;80.00
47338;DHT22;33069;51.970;5.892;2022-11-20T01:00:00;-3275.30;80.10
47338;DHT22;33069;51.970;5.892;2022-11-20T01:02:26;-3275.30;80.40
47338;DHT22;33069;51.970;5.892;2022-11-20T01:04:51;-3275.30;80.50
47338;DHT22;33069;51.970;5.892;2022-11-20T01:07:17;-3275.40;80.50
47338;DHT22;33069;51.970;5.892;2022-11-20T01:09:43;-3275.70;80.10
47338;DHT22;33069;51.970;5.892;2022-11-20T01:12:08;-3275.70;78.90
47338;DHT22;33069;51.970;5.892;2022-11-20T01:14:34;-3275.60;77.80
47338;DHT22;33069;51.970;5.892;2022-11-20T01:17:00;-3275.50;77.70
47338;DHT22;33069;51.970;5.892;2022-11-20T01:19:26;-3275.40;78.10
47338;DHT22;33069;51.970;5.892;2022-11-20T01:21:53;-3275.30;78.30
47338;DHT22;33069;51.970;5.892;2022-11-20T01:24:20;-3275.40;79.10
47338;DHT22;33069;51.970;5.892;2022-11-20T01:26:48;-3275.30;79.10
47338;DHT22;33069;51.970;5.892;2022-11-20T01:29:18;-3275.20;79.40
47338;DHT22;33069;51.970;5.892;2022-11-20T01:31:44;-3275.20;79.60
47338;DHT22;33069;51.970;5.892;2022-11-20T01:34:16;-3275.30;80.00
47338;DHT22;33069;51.970;5.892;2022-11-20T01:36:42;-3275.30;80.30
47338;DHT22;33069;51.970;5.892;2022-11-20T01:39:20;-3275.20;80.10
47338;DHT22;33069;51.970;5.892;2022-11-20T01:41:47;-3275.10;80.30
47338;DHT22;33069;51.970;5.892;2022-11-20T01:44:52;-3275.10;80.70
47338;DHT22;33069;51.970;5.892;2022-11-20T01:47:38;-3275.20;80.90
47338;DHT22;33069;51.970;5.892;2022-11-20T01:50:17;-3275.30;80.80
47338;DHT22;33069;51.970;5.892;2022-11-20T01:52:55;-3275.20;80.50
47338;DHT22;33069;51.970;5.892;2022-11-20T01:55:28;-3275.30;80.50
47338;DHT22;33069;51.970;5.892;2022-11-20T01:57:56;-3275.30;80.40
47338;DHT22;33069;51.970;5.892;2022-11-20T02:00:22;-3275.20;80.30
47338;DHT22;33069;51.970;5.892;2022-11-20T02:02:54;-3275.20;80.40
47338;DHT22;33069;51.970;5.892;2022-11-20T02:05:35;-3275.20;80.50
47338;DHT22;33069;51.970;5.892;2022-11-20T02:08:04;-3275.20;80.60
47338;DHT22;33069;51.970;5.892;2022-11-20T02:10:31;-3275.20;80.80
47338;DHT22;33069;51.970;5.892;2022-11-20T02:12:57;-3275.00;80.50
47338;DHT22;33069;51.970;5.892;2022-11-20T02:15:42;-3274.90;80.60
47338;DHT22;33069;51.970;5.892;2022-11-20T02:18:09;-3274.90;80.90
47338;DHT22;33069;51.970;5.892;2022-11-20T02:20:35;-3275.10;81.20
47338;DHT22;33069;51.970;5.892;2022-11-20T02:23:20;-3275.00;80.90
47338;DHT22;33069;51.970;5.892;2022-11-20T02:25:49;-3275.00;80.80
47338;DHT22;33069;51.970;5.892;2022-11-20T02:28:17;-3274.90;80.80
47338;DHT22;33069;51.970;5.892;2022-11-20T02:30:43;-3274.80;81.00
47338;DHT22;33069;51.970;5.892;2022-11-20T02:33:09;-3274.80;81.20
47338;DHT22;33069;51.970;5.892;2022-11-20T02:38:02;-3274.80;81.40
47338;DHT22;33069;51.970;5.892;2022-11-20T02:40:28;-3274.90;81.50
47338;DHT22;33069;51.970;5.892;2022-11-20T02:42:55;-3275.00;81.30
47338;DHT22;33069;51.970;5.892;2022-11-20T02:45:21;-3275.00;80.90
47338;DHT22;33069;51.970;5.892;2022-11-20T02:47:48;-3275.10;80.50
47338;DHT22;33069;51.970;5.892;2022-11-20T02:50:15;-3275.10;80.40
47338;DHT22;33069;51.970;5.892;2022-11-20T02:52:41;-3275.10;80.40
47338;DHT22;33069;51.970;5.892;2022-11-20T02:55:07;-3275.00;80.50
47338;DHT22;33069;51.970;5.892;2022-11-20T02:57:33;-3275.00;80.50
47338;DHT22;33069;51.970;5.892;2022-11-20T02:59:59;-3275.30;80.30
47338;DHT22;33069;51.970;5.892;2022-11-20T03:02:25;-3275.20;79.50
47338;DHT22;33069;51.970;5.892;2022-11-20T03:04:50;-3275.10;79.40
47338;DHT22;33069;51.970;5.892;2022-11-20T03:07:16;-3275.20;79.60
47338;DHT22;33069;51.970;5.892;2022-11-20T03:09:42;-3275.10;79.40
47338;DHT22;33069;51.970;5.892;2022-11-20T03:12:07;-3275.10;79.50
47338;DHT22;33069;51.970;5.892;2022-11-20T03:14:34;-3275.10;79.70
47338;DHT22;33069;51.970;5.892;2022-11-20T03:17:00;-3275.00;79.90
47338;DHT22;33069;51.970;5.892;2022-11-20T03:19:26;-3274.90;80.00
47338;DHT22;33069;51.970;5.892;2022-11-20T03:21:51;-3274.80;80.40
47338;DHT22;33069;51.970;5.892;2022-11-20T03:24:17;-3274.70;80.90
47338;DHT22;33069;51.970;5.892;2022-11-20T03:26:43;-3274.80;81.40
47338;DHT22;33069;51.970;5.892;2022-11-20T03:29:09;-3274.90;81.50
47338;DHT22;33069;51.970;5.892;2022-11-20T03:31:37;-3274.90;81.30
47338;DHT22;33069;51.970;5.892;2022-11-20T03:34:06;-3274.90;81.20
47338;DHT22;33069;51.970;5.892;2022-11-20T03:36:32;-3275.00;81.20
47338;DHT22;33069;51.970;5.892;2022-11-20T03:38:58;-3274.90;80.80
47338;DHT22;33069;51.970;5.892;2022-11-20T03:41:27;-3274.90;80.80
47338;DHT22;33069;51.970;5.892;2022-11-20T03:43:58;-3275.00;80.80
47338;DHT22;33069;51.970;5.892;2022-11-20T03:46:25;-3275.00;80.50
47338;DHT22;33069;51.970;5.892;2022-11-20T03:48:51;-3274.90;80.40
47338;DHT22;33069;51.970;5.892;2022-11-20T03:53:46;-3274.60;81.20
47338;DHT22;33069;51.970;5.892;2022-11-20T03:56:14;-3274.60;81.60
47338;DHT22;33069;51.970;5.892;2022-11-20T03:58:40;-3274.70;82.00
47338;DHT22;33069;51.970;5.892;2022-11-20T04:01:14;-3274.80;82.00
47338;DHT22;33069;51.970;5.892;2022-11-20T04:03:41;-3274.90;81.90
47338;DHT22;33069;51.970;5.892;2022-11-20T04:06:10;-3275.00;81.10
47338;DHT22;33069;51.970;5.892;2022-11-20T04:08:36;-3274.70;80.40
47338;DHT22;33069;51.970;5.892;2022-11-20T04:14:04;-3274.70;80.70
47338;DHT22;33069;51.970;5.892;2022-11-20T04:16:32;-3274.90;80.70
47338;DHT22;33069;51.970;5.892;2022-11-20T04:19:00;-3274.80;80.60
47338;DHT22;33069;51.970;5.892;2022-11-20T04:21:26;-3274.70;80.50
47338;DHT22;33069;51.970;5.892;2022-11-20T04:23:53;-3274.70;80.80
47338;DHT22;33069;51.970;5.892;2022-11-20T04:26:21;-3274.80;80.80
47338;DHT22;33069;51.970;5.892;2022-11-20T04:28:47;-3274.80;80.90
47338;DHT22;33069;51.970;5.892;2022-11-20T04:31:14;-3274.80;80.90
47338;DHT22;33069;51.970;5.892;2022-11-20T04:33:41;-3274.60;80.90
47338;DHT22;33069;51.970;5.892;2022-11-20T04:36:23;-3274.60;81.20
47338;DHT22;33069;51.970;5.892;2022-11-20T04:38:54;-3274.50;81.30
47338;DHT22;33069;51.970;5.892;2022-11-20T04:41:22;-3274.60;81.60
47338;DHT22;33069;51.970;5.892;2022-11-20T04:43:50;-3274.40;81.40
47338;DHT22;33069;51.970;5.892;2022-11-20T04:46:17;-3274.40;81.90
47338;DHT22;33069;51.970;5.892;2022-11-20T04:48:43;-3274.50;82.30
47338;DHT22;33069;51.970;5.892;2022-11-20T04:51:09;-3274.70;82.20
47338;DHT22;33069;51.970;5.892;2022-11-20T04:53:35;-3274.60;81.70
47338;DHT22;33069;51.970;5.892;2022-11-20T04:56:02;-3274.50;81.50
47338;DHT22;33069;51.970;5.892;2022-11-20T04:58:28;-3274.60;81.70
47338;DHT22;33069;51.970;5.892;2022-11-20T05:01:04;-3274.50;81.50
47338;DHT22;33069;51.970;5.892;2022-11-20T05:03:30;-3274.50;81.60
47338;DHT22;33069;51.970;5.892;2022-11-20T05:05:55;-3274.40;81.70
47338;DHT22;33069;51.970;5.892;2022-11-20T05:08:21;-3274.30;81.80
47338;DHT22;33069;51.970;5.892;2022-11-20T05:10:47;-3274.20;82.00
47338;DHT22;33069;51.970;5.892;2022-11-20T05:13:13;-3274.00;82.30
47338;DHT22;33069;51.970;5.892;2022-11-20T05:15:38;-3274.00;82.80
47338;DHT22;33069;51.970;5.892;2022-11-20T05:18:04;-3273.90;83.10
47338;DHT22;33069;51.970;5.892;2022-11-20T05:20:30;-3273.90;83.50
47338;DHT22;33069;51.970;5.892;2022-11-20T05:22:59;-3273.80;83.70
47338;DHT22;33069;51.970;5.892;2022-11-20T05:25:25;-3273.80;83.90
47338;DHT22;33069;51.970;5.892;2022-11-20T05:27:50;-3273.90;84.10
47338;DHT22;33069;51.970;5.892;2022-11-20T05:30:16;-3273.80;84.20
47338;DHT22;33069;51.970;5.892;2022-11-20T05:32:42;-3273.80;84.30
47338;DHT22;33069;51.970;5.892;2022-11-20T05:35:08;-3273.70;84.40
47338;DHT22;33069;51.970;5.892;2022-11-20T05:37:33;-3273.70;84.60
47338;DHT22;33069;51.970;5.892;2022-11-20T05:39:59;-3274.00;84.90
47338;DHT22;33069;51.970;5.892;2022-11-20T05:42:25;-3274.00;84.90
47338;DHT22;33069;51.970;5.892;2022-11-20T05:45:02;-3274.00;84.60
47338;DHT22;33069;51.970;5.892;2022-11-20T05:47:31;-3273.80;84.40
47338;DHT22;33069;51.970;5.892;2022-11-20T05:49:57;-3273.90;84.40
47338;DHT22;33069;51.970;5.892;2022-11-20T05:52:22;-3273.80;84.30
47338;DHT22;33069;51.970;5.892;2022-11-20T05:54:48;-3273.80;84.40
47338;DHT22;33069;51.970;5.892;2022-11-20T05:57:14;-3273.70;84.40
47338;DHT22;33069;51.970;5.892;2022-11-20T05:59:40;-3273.80;84.60
47338;DHT22;33069;51.970;5.892;2022-11-20T06:02:05;-3273.90;84.70
47338;DHT22;33069;51.970;5.892;2022-11-20T06:04:31;-3273.90;84.70
47338;DHT22;33069;51.970;5.892;2022-11-20T06:06:57;-3273.80;84.60
47338;DHT22;33069;51.970;5.892;2022-11-20T06:09:22;-3273.70;84.50
47338;DHT22;33069;51.970;5.892;2022-11-20T06:11:48;-3273.80;84.70
47338;DHT22;33069;51.970;5.892;2022-11-20T06:14:14;-3273.70;84.70
47338;DHT22;33069;51.970;5.892;2022-11-20T06:16:39;-3273.90;84.90
47338;DHT22;33069;51.970;5.892;2022-11-20T06:19:05;-3274.20;85.00
47338;DHT22;33069;51.970;5.892;2022-11-20T06:21:31;-3274.10;84.70
47338;DHT22;33069;51.970;5.892;2022-11-20T06:23:56;-3273.90;84.30
47338;DHT22;33069;51.970;5.892;2022-11-20T06:26:24;-3273.80;84.10
47338;DHT22;33069;51.970;5.892;2022-11-20T06:28:52;-3273.90;84.30
47338;DHT22;33069;51.970;5.892;2022-11-20T06:31:20;-3274.00;84.30
47338;DHT22;33069;51.970;5.892;2022-11-20T06:33:47;-3273.90;84.20
47338;DHT22;33069;51.970;5.892;2022-11-20T06:36:15;-3273.90;84.10
47338;DHT22;33069;51.970;5.892;2022-11-20T06:38:41;-3273.70;84.10
47338;DHT22;33069;51.970;5.892;2022-11-20T06:41:11;-3273.80;84.30
47338;DHT22;33069;51.970;5.892;2022-11-20T06:43:37;-3273.80;84.40
47338;DHT22;33069;51.970;5.892;2022-11-20T06:46:02;-3273.70;84.30
47338;DHT22;33069;51.970;5.892;2022-11-20T06:48:29;-3273.70;84.40
47338;DHT22;33069;51.970;5.892;2022-11-20T06:50:55;-3273.80;84.60
47338;DHT22;33069;51.970;5.892;2022-11-20T06:53:22;-3273.90;84.60
47338;DHT22;33069;51.970;5.892;2022-11-20T06:55:49;-3273.80;84.40
47338;DHT22;33069;51.970;5.892;2022-11-20T06:58:15;-3274.10;84.60
47338;DHT22;33069;51.970;5.892;2022-11-20T07:00:41;-3274.10;84.40
47338;DHT22;33069;51.970;5.892;2022-11-20T07:03:09;-3273.90;84.00
47338;DHT22;33069;51.970;5.892;2022-11-20T07:05:35;-3273.80;83.90
47338;DHT22;33069;51.970;5.892;2022-11-20T07:08:02;-3273.70;84.00
47338;DHT22;33069;51.970;5.892;2022-11-20T07:10:28;-3273.70;84.20
47338;DHT22;33069;51.970;5.892;2022-11-20T07:12:54;-3273.80;84.50
47338;DHT22;33069;51.970;5.892;2022-11-20T07:15:22;-3273.80;84.60
47338;DHT22;33069;51.970;5.892;2022-11-20T07:17:48;-3273.80;84.80
47338;DHT22;33069;51.970;5.892;2022-11-20T07:20:14;-3273.90;84.80
47338;DHT22;33069;51.970;5.892;2022-11-20T07:22:41;-3273.80;84.70
47338;DHT22;33069;51.970;5.892;2022-11-20T07:25:07;-3273.90;84.80
47338;DHT22;33069;51.970;5.892;2022-11-20T07:27:34;-3273.90;85.00
47338;DHT22;33069;51.970;5.892;2022-11-20T07:30:00;-3273.90;84.90
47338;DHT22;33069;51.970;5.892;2022-11-20T07:32:27;-3273.90;84.90
47338;DHT22;33069;51.970;5.892;2022-11-20T07:34:52;-3274.00;85.00
47338;DHT22;33069;51.970;5.892;2022-11-20T07:37:18;-3274.00;85.00
47338;DHT22;33069;51.970;5.892;2022-11-20T07:39:44;-3274.10;85.10
47338;DHT22;33069;51.970;5.892;2022-11-20T07:42:09;-3274.10;85.00
47338;DHT22;33069;51.970;5.892;2022-11-20T07:44:37;-3274.10;85.00
47338;DHT22;33069;51.970;5.892;2022-11-20T07:47:03;-3274.10;85.00
47338;DHT22;33069;51.970;5.892;2022-11-20T07:49:29;-3274.40;85.20
47338;DHT22;33069;51.970;5.892;2022-11-20T07:51:54;-3274.40;85.10
47338;DHT22;33069;51.970;5.892;2022-11-20T07:54:21;-3274.60;85.20
47338;DHT22;33069;51.970;5.892;2022-11-20T07:56:47;-3274.50;85.00
47338;DHT22;33069;51.970;5.892;2022-11-20T07:59:13;-3274.70;85.10
47338;DHT22;33069;51.970;5.892;2022-11-20T08:01:39;-3274.90;85.00
47338;DHT22;33069;51.970;5.892;2022-11-20T08:04:05;-3274.90;84.70
47338;DHT22;33069;51.970;5.892;2022-11-20T08:06:31;-3274.90;84.50
47338;DHT22;33069;51.970;5.892;2022-11-20T08:08:57;-3274.90;84.50
47338;DHT22;33069;51.970;5.892;2022-11-20T08:11:23;-3274.90;84.40
47338;DHT22;33069;51.970;5.892;2022-11-20T08:14:07;-3274.80;84.30
47338;DHT22;33069;51.970;5.892;2022-11-20T08:16:48;-3274.90;84.50
47338;DHT22;33069;51.970;5.892;2022-11-20T08:19:16;-3274.80;84.50
47338;DHT22;33069;51.970;5.892;2022-11-20T08:21:42;-3274.90;84.70
47338;DHT22;33069;51.970;5.892;2022-11-20T08:24:08;-3275.10;84.90
47338;DHT22;33069;51.970;5.892;2022-11-20T08:26:36;-3275.10;84.80
47338;DHT22;33069;51.970;5.892;2022-11-20T08:29:02;-3275.00;84.70
47338;DHT22;33069;51.970;5.892;2022-11-20T08:31:28;-3275.20;84.80
47338;DHT22;33069;51.970;5.892;2022-11-20T08:33:54;-3275.20;84.70
47338;DHT22;33069;51.970;5.892;2022-11-20T08:36:21;-3275.40;84.80
47338;DHT22;33069;51.970;5.892;2022-11-20T08:38:52;-3275.40;84.70
47338;DHT22;33069;51.970;5.892;2022-11-20T08:41:18;-3275.60;84.70
47338;DHT22;33069;51.970;5.892;2022-11-20T08:43:52;-3275.50;84.40
47338;DHT22;33069;51.970;5.892;2022-11-20T08:46:18;-3275.50;84.30
47338;DHT22;33069;51.970;5.892;2022-11-20T08:48:44;-3275.60;84.20
47338;DHT22;33069;51.970;5.892;2022-11-20T08:51:10;-3275.70;84.20
47338;DHT22;33069;51.970;5.892;2022-11-20T08:53:37;-3275.80;84.20
47338;DHT22;33069;51.970;5.892;2022-11-20T08:56:03;-3275.80;84.10
47338;DHT22;33069;51.970;5.892;2022-11-20T08:58:29;-3275.90;84.00
47338;DHT22;33069;51.970;5.892;2022-11-20T09:00:54;-3276.10;84.00
47338;DHT22;33069;51.970;5.892;2022-11-20T09:03:20;-3276.20;83.70
47338;DHT22;33069;51.970;5.892;2022-11-20T09:05:46;-3276.10;83.40
47338;DHT22;33069;51.970;5.892;2022-11-20T09:08:11;-3276.20;83.40
47338;DHT22;33069;51.970;5.892;2022-11-20T09:10:37;-3276.30;83.40
47338;DHT22;33069;51.970;5.892;2022-11-20T09:13:05;-3276.30;83.20
47338;DHT22;33069;51.970;5.892;2022-11-20T09:15:31;-3276.30;83.10
47338;DHT22;33069;51.970;5.892;2022-11-20T09:18:00;-3276.40;83.00
47338;DHT22;33069;51.970;5.892;2022-11-20T09:20:28;-3276.50;83.10
47338;DHT22;33069;51.970;5.892;2022-11-20T09:22:54;-3276.50;82.90
47338;DHT22;33069;51.970;5.892;2022-11-20T09:25:20;-3276.60;82.70
47338;DHT22;33069;51.970;5.892;2022-11-20T09:27:46;-3276.60;82.50
47338;DHT22;33069;51.970;5.892;2022-11-20T09:30:14;-3276.70;82.30
47338;DHT22;33069;51.970;5.892;2022-11-20T09:32:40;-3276.70;82.00
47338;DHT22;33069;51.970;5.892;2022-11-20T09:35:07;-3276.70;81.90
47338;DHT22;33069;51.970;5.892;2022-11-20T09:37:33;0.00;82.00
47338;DHT22;33069;51.970;5.892;2022-11-20T09:39:59;0.00;81.90
47338;DHT22;33069;51.970;5.892;2022-11-20T09:42:47;0.00;81.80
47338;DHT22;33069;51.970;5.892;2022-11-20T09:45:35;0.00;81.40
47338;DHT22;33069;51.970;5.892;2022-11-20T09:54:19;0.10;81.50
47338;DHT22;33069;51.970;5.892;2022-11-20T09:56:53;0.10;81.50
47338;DHT22;33069;51.970;5.892;2022-11-20T09:59:32;0.20;81.60
47338;DHT22;33069;51.970;5.892;2022-11-20T10:01:59;0.30;81.60
47338;DHT22;33069;51.970;5.892;2022-11-20T10:04:26;0.40;81.60
47338;DHT22;33069;51.970;5.892;2022-11-20T10:07:08;0.30;81.50
47338;DHT22;33069;51.970;5.892;2022-11-20T10:09:40;0.40;81.60
47338;DHT22;33069;51.970;5.892;2022-11-20T10:15:31;0.40;80.70
47338;DHT22;33069;51.970;5.892;2022-11-20T10:29:09;1.00;80.70
47338;DHT22;33069;51.970;5.892;2022-11-20T10:31:38;1.20;80.50
47338;DHT22;33069;51.970;5.892;2022-11-20T10:37:11;1.30;79.50
47338;DHT22;33069;51.970;5.892;2022-11-20T10:39:50;1.30;79.40
47338;DHT22;33069;51.970;5.892;2022-11-20T10:42:28;1.60;79.60
47338;DHT22;33069;51.970;5.892;2022-11-20T10:47:36;1.60;79.40
47338;DHT22;33069;51.970;5.892;2022-11-20T10:50:05;1.50;79.30
47338;DHT22;33069;51.970;5.892;2022-11-20T11:00:37;1.70;79.20
47338;DHT22;33069;51.970;5.892;2022-11-20T11:03:07;1.70;79.40
47338;DHT22;33069;51.970;5.892;2022-11-20T11:06:08;1.70;79.40
47338;DHT22;33069;51.970;5.892;2022-11-20T11:08:38;1.70;79.40
47338;DHT22;33069;51.970;5.892;2022-11-20T11:11:29;1.80;79.50
47338;DHT22;33069;51.970;5.892;2022-11-20T11:14:11;2.00;79.30
47338;DHT22;33069;51.970;5.892;2022-11-20T11:16:56;1.90;79.30
47338;DHT22;33069;51.970;5.892;2022-11-20T11:19:23;2.10;79.40
47338;DHT22;33069;51.970;5.892;2022-11-20T11:21:52;2.00;79.30
47338;DHT22;33069;51.970;5.892;2022-11-20T11:24:24;2.00;79.40
47338;DHT22;33069;51.970;5.892;2022-11-20T11:27:01;2.00;79.70
47338;DHT22;33069;51.970;5.892;2022-11-20T11:29:32;2.10;79.80
47338;DHT22;33069;51.970;5.892;2022-11-20T11:32:12;2.30;79.90
47338;DHT22;33069;51.970;5.892;2022-11-20T11:34:38;2.30;79.40
47338;DHT22;33069;51.970;5.892;2022-11-20T11:37:05;2.50;79.80
47338;DHT22;33069;51.970;5.892;2022-11-20T11:39:32;2.40;79.50
47338;DHT22;33069;51.970;5.892;2022-11-20T11:42:00;2.40;79.50
47338;DHT22;33069;51.970;5.892;2022-11-20T11:44:33;2.60;80.00
47338;DHT22;33069;51.970;5.892;2022-11-20T11:47:29;2.70;79.60
47338;DHT22;33069;51.970;5.892;2022-11-20T11:55:43;2.80;79.70
47338;DHT22;33069;51.970;5.892;2022-11-20T11:58:39;3.20;79.60
47338;DHT22;33069;51.970;5.892;2022-11-20T12:03:38;2.90;78.80
47338;DHT22;33069;51.970;5.892;2022-11-20T12:06:16;3.00;79.20
47338;DHT22;33069;51.970;5.892;2022-11-20T12:08:59;3.10;79.20
47338;DHT22;33069;51.970;5.892;2022-11-20T12:11:46;3.10;78.90
47338;DHT22;33069;51.970;5.892;2022-11-20T12:14:37;3.00;78.90
47338;DHT22;33069;51.970;5.892;2022-11-20T12:17:04;2.80;79.30
47338;DHT22;33069;51.970;5.892;2022-11-20T12:19:31;2.70;80.00
47338;DHT22;33069;51.970;5.892;2022-11-20T12:25:06;2.50;80.80
47338;DHT22;33069;51.970;5.892;2022-11-20T12:27:38;2.50;81.20
47338;DHT22;33069;51.970;5.892;2022-11-20T12:30:10;2.50;81.60
47338;DHT22;33069;51.970;5.892;2022-11-20T12:45:18;3.00;81.80
47338;DHT22;33069;51.970;5.892;2022-11-20T12:56:37;3.00;81.70
47338;DHT22;33069;51.970;5.892;2022-11-20T12:59:33;2.90;82.00
47338;DHT22;33069;51.970;5.892;2022-11-20T13:02:24;2.90;81.80
47338;DHT22;33069;51.970;5.892;2022-11-20T13:07:45;2.80;81.80
47338;DHT22;33069;51.970;5.892;2022-11-20T13:10:21;2.80;82.10
47338;DHT22;33069;51.970;5.892;2022-11-20T13:12:58;2.80;82.20
47338;DHT22;33069;51.970;5.892;2022-11-20T13:18:11;2.80;82.70
47338;DHT22;33069;51.970;5.892;2022-11-20T13:20:45;2.70;82.50
47338;DHT22;33069;51.970;5.892;2022-11-20T13:23:11;2.60;82.90
47338;DHT22;33069;51.970;5.892;2022-11-20T13:25:47;2.70;83.40
47338;DHT22;33069;51.970;5.892;2022-11-20T13:30:55;2.70;83.40
47338;DHT22;33069;51.970;5.892;2022-11-20T13:36:24;3.20;84.00
47338;DHT22;33069;51.970;5.892;2022-11-20T13:38:53;3.30;83.70
47338;DHT22;33069;51.970;5.892;2022-11-20T13:44:42;3.50;83.10
47338;DHT22;33069;51.970;5.892;2022-11-20T13:47:29;3.40;83.00
47338;DHT22;33069;51.970;5.892;2022-11-20T13:49:56;3.20;82.90
47338;DHT22;33069;51.970;5.892;2022-11-20T13:55:54;3.40;83.40
47338;DHT22;33069;51.970;5.892;2022-11-20T14:03:34;3.30;83.70
47338;DHT22;33069;51.970;5.892;2022-11-20T14:06:05;3.00;83.70
47338;DHT22;33069;51.970;5.892;2022-11-20T14:08:46;3.00;84.20
47338;DHT22;33069;51.970;5.892;2022-11-20T14:13:54;2.90;84.80
47338;DHT22;33069;51.970;5.892;2022-11-20T14:16:22;3.00;85.10
47338;DHT22;33069;51.970;5.892;2022-11-20T14:18:48;3.30;85.30
47338;DHT22;33069;51.970;5.892;2022-11-20T14:21:27;3.30;84.80
47338;DHT22;33069;51.970;5.892;2022-11-20T14:24:17;3.10;84.60
47338;DHT22;33069;51.970;5.892;2022-11-20T14:26:44;2.90;84.70
47338;DHT22;33069;51.970;5.892;2022-11-20T14:29:17;2.80;85.10
47338;DHT22;33069;51.970;5.892;2022-11-20T14:31:44;2.70;85.50
47338;DHT22;33069;51.970;5.892;2022-11-20T14:34:25;3.10;86.00
47338;DHT22;33069;51.970;5.892;2022-11-20T14:36:57;3.20;85.80
47338;DHT22;33069;51.970;5.892;2022-11-20T14:39:34;3.10;85.60
47338;DHT22;33069;51.970;5.892;2022-11-20T14:42:01;3.00;85.60
47338;DHT22;33069;51.970;5.892;2022-11-20T14:44:33;3.10;85.80
47338;DHT22;33069;51.970;5.892;2022-11-20T14:47:02;3.10;86.00
47338;DHT22;33069;51.970;5.892;2022-11-20T14:49:30;2.90;85.90
47338;DHT22;33069;51.970;5.892;2022-11-20T14:52:02;2.90;86.20
47338;DHT22;33069;51.970;5.892;2022-11-20T14:54:28;3.30;86.50
47338;DHT22;33069;51.970;5.892;2022-11-20T14:56:59;3.30;86.40
47338;DHT22;33069;51.970;5.892;2022-11-20T14:59:32;3.20;86.30
47338;DHT22;33069;51.970;5.892;2022-11-20T15:04:25;3.40;86.30
47338;DHT22;33069;51.970;5.892;2022-11-20T15:06:53;3.40;86.10
47338;DHT22;33069;51.970;5.892;2022-11-20T15:09:19;3.40;86.10
47338;DHT22;33069;51.970;5.892;2022-11-20T15:12:16;3.40;86.10
47338;DHT22;33069;51.970;5.892;2022-11-20T15:14:49;3.40;86.20
47338;DHT22;33069;51.970;5.892;2022-11-20T15:17:15;3.30;86.10
47338;DHT22;33069;51.970;5.892;2022-11-20T15:19:41;3.20;86.20
47338;DHT22;33069;51.970;5.892;2022-11-20T15:22:11;3.30;86.50
47338;DHT22;33069;51.970;5.892;2022-11-20T15:24:41;3.20;86.60
47338;DHT22;33069;51.970;5.892;2022-11-20T15:27:09;3.30;86.80
47338;DHT22;33069;51.970;5.892;2022-11-20T15:29:35;3.40;86.80
47338;DHT22;33069;51.970;5.892;2022-11-20T15:32:01;3.30;86.80
47338;DHT22;33069;51.970;5.892;2022-11-20T15:34:27;3.30;86.80
47338;DHT22;33069;51.970;5.892;2022-11-20T15:36:53;3.30;87.00
47338;DHT22;33069;51.970;5.892;2022-11-20T15:39:20;3.40;87.10
47338;DHT22;33069;51.970;5.892;2022-11-20T15:41:46;3.70;87.20
47338;DHT22;33069;51.970;5.892;2022-11-20T15:44:12;3.60;86.80
47338;DHT22;33069;51.970;5.892;2022-11-20T15:46:41;3.50;86.60
47338;DHT22;33069;51.970;5.892;2022-11-20T15:49:14;3.50;86.70
47338;DHT22;33069;51.970;5.892;2022-11-20T15:51:46;3.40;86.60
47338;DHT22;33069;51.970;5.892;2022-11-20T15:54:22;3.30;86.70
47338;DHT22;33069;51.970;5.892;2022-11-20T15:56:49;3.50;87.00
47338;DHT22;33069;51.970;5.892;2022-11-20T15:59:15;3.50;87.00
47338;DHT22;33069;51.970;5.892;2022-11-20T16:01:41;3.50;87.10
47338;DHT22;33069;51.970;5.892;2022-11-20T16:04:12;3.30;87.00
47338;DHT22;33069;51.970;5.892;2022-11-20T16:06:38;3.40;87.20
47338;DHT22;33069;51.970;5.892;2022-11-20T16:09:04;3.30;87.40
47338;DHT22;33069;51.970;5.892;2022-11-20T16:11:30;3.90;87.70
47338;DHT22;33069;51.970;5.892;2022-11-20T16:13:57;3.50;87.30
47338;DHT22;33069;51.970;5.892;2022-11-20T16:16:52;3.50;87.30
47338;DHT22;33069;51.970;5.892;2022-11-20T16:19:18;3.20;87.20
47338;DHT22;33069;51.970;5.892;2022-11-20T16:21:44;3.20;87.40
47338;DHT22;33069;51.970;5.892;2022-11-20T16:24:11;3.50;87.70
47338;DHT22;33069;51.970;5.892;2022-11-20T16:26:38;3.50;87.80
47338;DHT22;33069;51.970;5.892;2022-11-20T16:29:05;3.60;87.90
47338;DHT22;33069;51.970;5.892;2022-11-20T16:31:31;3.50;87.80
47338;DHT22;33069;51.970;5.892;2022-11-20T16:34:01;3.40;87.90
47338;DHT22;33069;51.970;5.892;2022-11-20T16:36:28;3.70;88.00
47338;DHT22;33069;51.970;5.892;2022-11-20T16:38:57;3.50;87.90
47338;DHT22;33069;51.970;5.892;2022-11-20T16:41:23;3.50;87.80
47338;DHT22;33069;51.970;5.892;2022-11-20T16:43:53;3.40;87.90
47338;DHT22;33069;51.970;5.892;2022-11-20T16:46:21;3.70;88.10
47338;DHT22;33069;51.970;5.892;2022-11-20T16:49:04;3.60;87.90
47338;DHT22;33069;51.970;5.892;2022-11-20T16:51:33;3.70;87.80
47338;DHT22;33069;51.970;5.892;2022-11-20T16:54:03;3.60;87.70
47338;DHT22;33069;51.970;5.892;2022-11-20T16:56:30;3.50;87.70
47338;DHT22;33069;51.970;5.892;2022-11-20T16:58:57;3.50;87.80
47338;DHT22;33069;51.970;5.892;2022-11-20T17:01:24;3.60;87.90
47338;DHT22;33069;51.970;5.892;2022-11-20T17:04:01;3.60;87.90
47338;DHT22;33069;51.970;5.892;2022-11-20T17:06:33;3.50;87.80